Time;durP1;ratioP1;P1;durP2;ratioP2;P2;SDS_P1;SDS_P2;PMS_P1;PMS_P2;Temp;Humidity;BMP_temperature;BMP_pressure;BME280_temperature;BME280_humidity;BME280_pressure;Samples;Min_cycle;Max_cycle;Signal;HPM_P1;HPM_P2
2023/07/02 00:01:08;;;;;;;2.30;1.80;;;18.50;99.90;;;;;;5080140;28;20024;-69
2023/07/02 00:03:34;;;;;;;4.70;1.50;;;18.50;99.90;;;;;;5080169;28;20032;-69
2023/07/02 00:05:59;;;;;;;2.70;1.70;;;18.40;99.90;;;;;;5079450;28;20017;-69
2023/07/02 00:08:25;;;;;;;4.78;2.25;;;18.40;99.90;;;;;;5079933;28;20032;-69
2023/07/02 00:10:50;;;;;;;3.42;1.60;;;18.40;99.90;;;;;;5078926;28;20111;-69
2023/07/02 00:13:16;;;;;;;1.77;1.67;;;18.30;99.90;;;;;;5078889;28;20024;-69
2023/07/02 00:15:41;;;;;;;5.32;1.80;;;18.30;99.90;;;;;;5078820;28;20119;-69
2023/07/02 00:18:07;;;;;;;2.28;1.70;;;18.30;99.90;;;;;;5079973;28;20024;-69
2023/07/02 00:20:37;;;;;;;1.83;1.50;;;18.20;99.90;;;;;;5078994;28;20130;-69
2023/07/02 00:23:04;;;;;;;2.65;1.77;;;18.30;99.90;;;;;;5079825;28;20028;-69
2023/07/02 00:25:29;;;;;;;3.03;2.15;;;18.30;99.90;;;;;;5078663;28;20028;-69
2023/07/02 00:27:55;;;;;;;2.97;1.90;;;18.30;99.90;;;;;;5078492;28;20032;-68
2023/07/02 00:30:20;;;;;;;6.18;2.72;;;18.20;99.90;;;;;;5078371;28;20020;-69
2023/07/02 00:32:46;;;;;;;5.85;2.70;;;18.30;99.90;;;;;;5079802;28;20021;-69
2023/07/02 00:35:12;;;;;;;5.03;2.90;;;18.20;99.90;;;;;;5078553;28;20024;-69
2023/07/02 00:37:37;;;;;;;5.45;3.17;;;18.20;99.90;;;;;;5079396;28;20024;-69
2023/07/02 00:40:03;;;;;;;4.25;2.38;;;18.20;99.90;;;;;;5078340;28;20077;-69
2023/07/02 00:42:30;;;;;;;7.18;2.38;;;18.10;99.90;;;;;;5079331;28;20036;-69
2023/07/02 00:44:57;;;;;;;4.78;3.10;;;18.10;99.90;;;;;;5079718;28;20035;-69
2023/07/02 00:47:23;;;;;;;3.22;2.20;;;18.10;99.90;;;;;;5079279;28;20047;-69
2023/07/02 00:49:50;;;;;;;4.20;2.05;;;18.00;99.90;;;;;;5078512;28;20052;-69
2023/07/02 00:52:16;;;;;;;7.65;2.95;;;18.00;99.90;;;;;;5078403;28;20028;-69
2023/07/02 00:54:41;;;;;;;4.85;2.08;;;17.90;99.90;;;;;;5078031;28;20032;-70
2023/07/02 00:57:07;;;;;;;2.75;1.90;;;17.90;99.90;;;;;;5078098;28;20021;-70
2023/07/02 00:59:37;;;;;;;2.60;2.30;;;17.90;99.90;;;;;;5078064;28;20082;-70
2023/07/02 01:02:05;;;;;;;6.18;2.50;;;17.90;99.90;;;;;;5077945;28;20032;-70
2023/07/02 01:04:31;;;;;;;3.08;1.85;;;18.00;99.90;;;;;;5078944;28;20048;-70
2023/07/02 01:06:59;;;;;;;4.32;1.88;;;18.00;99.90;;;;;;5078022;28;20028;-70
2023/07/02 01:09:26;;;;;;;4.78;1.95;;;18.00;99.90;;;;;;5078310;28;20221;-70
2023/07/02 01:12:01;;;;;;;5.78;1.88;;;18.00;99.90;;;;;;5078671;28;20040;-70
2023/07/02 01:14:36;;;;;;;7.72;2.30;;;18.00;99.90;;;;;;5077742;28;20058;-70
2023/07/02 01:17:03;;;;;;;5.60;2.10;;;18.00;99.90;;;;;;5078095;28;20024;-70
2023/07/02 01:19:44;;;;;;;5.57;1.88;;;18.00;99.90;;;;;;5078551;28;20017;-70
2023/07/02 01:22:10;;;;;;;2.95;1.85;;;17.90;99.90;;;;;;5077963;28;20025;-70
2023/07/02 01:24:39;;;;;;;2.90;1.95;;;17.90;99.90;;;;;;5077527;28;20032;-70
2023/07/02 01:27:06;;;;;;;5.68;2.05;;;17.90;99.90;;;;;;5077351;28;20032;-70
2023/07/02 01:29:31;;;;;;;6.97;2.72;;;17.80;99.90;;;;;;5077399;28;20028;-70
2023/07/02 01:31:57;;;;;;;5.70;2.22;;;17.80;99.90;;;;;;5077756;28;20020;-70
2023/07/02 01:34:23;;;;;;;2.28;1.92;;;17.90;99.90;;;;;;5077471;28;20024;-70
2023/07/02 01:36:49;;;;;;;4.53;1.77;;;17.90;99.90;;;;;;5078181;28;20025;-70
2023/07/02 01:39:15;;;;;;;3.78;2.00;;;17.90;99.90;;;;;;5077127;28;20035;-70
2023/07/02 01:41:49;;;;;;;4.32;1.90;;;17.90;99.90;;;;;;5076903;28;20031;-70
2023/07/02 01:44:14;;;;;;;3.13;1.90;;;17.90;99.90;;;;;;5077228;28;20035;-70
2023/07/02 01:46:40;;;;;;;5.15;2.00;;;17.90;99.90;;;;;;5077021;28;20115;-70
2023/07/02 01:49:05;;;;;;;6.97;2.42;;;17.90;99.90;;;;;;5078033;28;20027;-70
2023/07/02 01:51:31;;;;;;;4.35;1.98;;;18.00;99.90;;;;;;5077082;28;20024;-70
2023/07/02 01:53:57;;;;;;;3.65;1.70;;;18.00;99.90;;;;;;5078162;28;20055;-70
2023/07/02 01:56:22;;;;;;;4.90;1.88;;;18.00;99.90;;;;;;5076456;28;20048;-70
2023/07/02 01:58:48;;;;;;;3.65;1.80;;;18.00;99.90;;;;;;5077416;28;20044;-70
2023/07/02 02:01:13;;;;;;;6.00;2.13;;;18.00;99.90;;;;;;5077841;28;20054;-70
2023/07/02 02:03:39;;;;;;;3.00;2.22;;;17.90;99.90;;;;;;5077518;28;20025;-70
2023/07/02 02:06:04;;;;;;;4.70;2.50;;;17.90;99.90;;;;;;5076783;28;20031;-71
2023/07/02 02:08:30;;;;;;;3.35;2.25;;;17.90;99.90;;;;;;5076671;28;20032;-71
2023/07/02 02:10:55;;;;;;;3.35;1.80;;;17.90;99.90;;;;;;5076867;28;20035;-70
2023/07/02 02:13:21;;;;;;;1.88;1.42;;;17.80;99.90;;;;;;5077585;28;20036;-70
2023/07/02 02:15:46;;;;;;;4.10;1.83;;;17.80;99.90;;;;;;5076493;28;20013;-70
2023/07/02 02:18:12;;;;;;;3.13;1.58;;;17.80;99.90;;;;;;5077334;28;20039;-70
2023/07/02 02:20:38;;;;;;;1.98;1.60;;;17.70;99.90;;;;;;5076368;28;20052;-70
2023/07/02 02:23:03;;;;;;;3.38;1.70;;;17.80;99.90;;;;;;5076835;28;20032;-70
2023/07/02 02:25:29;;;;;;;1.60;1.30;;;17.80;99.90;;;;;;5077621;28;20032;-70
2023/07/02 02:27:54;;;;;;;2.72;1.15;;;17.70;99.90;;;;;;5077495;28;20123;-70
2023/07/02 02:30:20;;;;;;;2.75;1.35;;;17.60;99.90;;;;;;5076213;28;20017;-70
2023/07/02 02:32:45;;;;;;;3.10;1.20;;;17.60;99.90;;;;;;5077019;28;20032;-70
2023/07/02 02:35:11;;;;;;;2.25;1.38;;;17.60;99.90;;;;;;5076304;28;20012;-70
2023/07/02 02:37:39;;;;;;;3.05;1.75;;;17.50;99.90;;;;;;5076289;28;20032;-70
2023/07/02 02:40:08;;;;;;;2.05;1.60;;;17.50;99.90;;;;;;5077036;28;20097;-70
2023/07/02 02:42:34;;;;;;;5.93;1.90;;;17.40;99.90;;;;;;5077082;28;20082;-70
2023/07/02 02:45:00;;;;;;;3.85;1.58;;;17.40;99.90;;;;;;5076024;28;20050;-70
2023/07/02 02:47:26;;;;;;;1.88;1.38;;;17.40;99.90;;;;;;5076066;28;20056;-70
2023/07/02 02:49:51;;;;;;;1.83;1.50;;;17.30;99.90;;;;;;5076534;28;20021;-70
2023/07/02 02:52:18;;;;;;;3.50;1.70;;;17.30;99.90;;;;;;5076869;28;20021;-70
2023/07/02 02:54:43;;;;;;;4.32;2.10;;;17.40;99.90;;;;;;5077045;28;20024;-69
2023/07/02 02:57:09;;;;;;;4.50;1.60;;;17.30;99.90;;;;;;5076125;28;20024;-70
2023/07/02 02:59:34;;;;;;;3.63;1.90;;;17.40;99.90;;;;;;5077007;28;20020;-70
2023/07/02 03:02:00;;;;;;;7.43;2.08;;;17.40;99.90;;;;;;5075830;28;20024;-70
2023/07/02 03:04:25;;;;;;;4.53;1.77;;;17.40;99.90;;;;;;5076352;28;20025;-70
2023/07/02 03:06:52;;;;;;;4.47;2.17;;;17.40;99.90;;;;;;5076109;28;20021;-70
2023/07/02 03:09:19;;;;;;;2.20;2.00;;;17.40;99.90;;;;;;5079711;28;20017;-70
2023/07/02 03:11:45;;;;;;;2.45;1.73;;;17.50;99.90;;;;;;5079919;28;20024;-70
2023/07/02 03:14:10;;;;;;;5.72;1.92;;;17.40;99.90;;;;;;5080097;28;20021;-70
2023/07/02 03:16:36;;;;;;;4.35;1.90;;;17.40;99.90;;;;;;5080272;28;20025;-70
2023/07/02 03:19:02;;;;;;;2.78;1.80;;;17.40;99.90;;;;;;5080374;28;20028;-70
2023/07/02 03:21:29;;;;;;;5.15;1.88;;;17.40;99.90;;;;;;5080010;28;20047;-70
2023/07/02 03:23:55;;;;;;;7.03;2.53;;;17.40;99.90;;;;;;5080746;28;20137;-70
2023/07/02 03:26:22;;;;;;;4.38;1.95;;;17.40;99.90;;;;;;5079659;28;20031;-70
2023/07/02 03:28:48;;;;;;;2.53;1.50;;;17.50;99.90;;;;;;5080700;28;20021;-70
2023/07/02 03:31:13;;;;;;;3.13;1.90;;;17.40;99.90;;;;;;5080241;28;20050;-70
2023/07/02 03:33:39;;;;;;;1.83;1.70;;;17.40;99.90;;;;;;5079570;28;20052;-70
2023/07/02 03:36:04;;;;;;;5.57;2.00;;;17.40;99.90;;;;;;5080790;28;20111;-70
2023/07/02 03:38:30;;;;;;;5.88;1.55;;;17.40;99.90;;;;;;5079497;28;20093;-70
2023/07/02 03:40:55;;;;;;;3.13;1.60;;;17.40;99.90;;;;;;5079355;28;20028;-70
2023/07/02 03:43:21;;;;;;;2.47;1.65;;;17.30;99.90;;;;;;5079449;28;20028;-70
2023/07/02 03:45:46;;;;;;;4.57;1.90;;;17.30;99.90;;;;;;5079455;28;20033;-70
2023/07/02 03:48:12;;;;;;;2.90;1.45;;;17.30;99.90;;;;;;5079203;28;20028;-70
2023/07/02 03:50:37;;;;;;;3.75;1.70;;;17.30;99.90;;;;;;5080265;28;20019;-70
2023/07/02 03:53:03;;;;;;;2.55;1.50;;;17.30;99.90;;;;;;5079577;28;20024;-70
2023/07/02 03:55:29;;;;;;;3.20;1.70;;;17.30;99.90;;;;;;5079542;28;20021;-70
2023/07/02 03:57:54;;;;;;;5.18;1.95;;;17.30;99.90;;;;;;5079266;28;20032;-70
2023/07/02 04:00:20;;;;;;;2.35;1.67;;;17.20;99.90;;;;;;5079380;28;20020;-70
2023/07/02 04:02:46;;;;;;;9.30;2.75;;;17.20;99.90;;;;;;5080275;28;20032;-70
2023/07/02 04:05:11;;;;;;;2.47;1.70;;;17.20;99.90;;;;;;5079117;28;20024;-69
2023/07/02 04:07:37;;;;;;;7.20;2.10;;;17.10;99.90;;;;;;5078811;28;20024;-70
2023/07/02 04:10:02;;;;;;;2.05;1.70;;;17.00;99.90;;;;;;5078909;28;20088;-70
2023/07/02 04:12:28;;;;;;;2.88;1.63;;;16.90;99.90;;;;;;5079518;28;20077;-70
2023/07/02 04:14:54;;;;;;;3.45;1.70;;;16.80;99.90;;;;;;5078909;28;20016;-70
2023/07/02 04:17:19;;;;;;;5.38;1.98;;;16.80;99.90;;;;;;5078885;28;20094;-70
2023/07/02 04:19:45;;;;;;;6.45;1.70;;;16.80;99.90;;;;;;5078151;28;20036;-70
2023/07/02 04:22:10;;;;;;;9.82;1.90;;;16.80;99.90;;;;;;5079120;28;20036;-70
2023/07/02 04:24:36;;;;;;;4.30;1.95;;;16.70;99.90;;;;;;5078595;28;20028;-70
2023/07/02 04:27:01;;;;;;;4.20;1.90;;;16.70;99.90;;;;;;5078591;28;20029;-70
2023/07/02 04:29:27;;;;;;;6.60;2.05;;;16.70;99.90;;;;;;5079543;28;20048;-70
2023/07/02 04:31:53;;;;;;;3.95;2.38;;;16.70;99.90;;;;;;5079401;28;20059;-70
2023/07/02 04:34:21;;;;;;;6.25;1.95;;;16.70;99.90;;;;;;5079981;28;20024;-70
2023/07/02 04:36:47;;;;;;;3.70;1.85;;;16.60;99.90;;;;;;5078495;28;20078;-70
2023/07/02 04:39:13;;;;;;;5.78;2.20;;;16.60;99.90;;;;;;5079194;28;20029;-70
2023/07/02 04:41:38;;;;;;;8.75;2.20;;;16.60;99.90;;;;;;5100216;22;20059;-66
2023/07/02 04:44:04;;;;;;;6.10;2.00;;;16.60;99.90;;;;;;5078960;28;20056;-68
2023/07/02 04:46:30;;;;;;;5.75;2.33;;;16.60;99.90;;;;;;5079196;28;20027;-74
2023/07/02 04:48:55;;;;;;;5.45;2.30;;;16.60;99.90;;;;;;5078619;28;20039;-69
2023/07/02 04:51:21;;;;;;;6.90;1.98;;;16.60;99.90;;;;;;5078252;28;20025;-69
2023/07/02 04:53:47;;;;;;;4.40;2.40;;;16.50;99.90;;;;;;5078177;28;20020;-74
2023/07/02 04:56:12;;;;;;;4.18;2.40;;;16.40;99.90;;;;;;5079078;28;20029;-69
2023/07/02 04:58:38;;;;;;;6.85;1.90;;;16.50;99.90;;;;;;5078210;28;20024;-68
2023/07/02 05:01:04;;;;;;;6.13;2.50;;;16.50;99.90;;;;;;5078535;28;20024;-72
2023/07/02 05:03:30;;;;;;;6.10;2.28;;;16.60;99.90;;;;;;5078102;28;20024;-74
2023/07/02 05:05:55;;;;;;;7.32;2.38;;;16.60;99.90;;;;;;5078546;28;20025;-69
2023/07/02 05:08:21;;;;;;;7.63;2.83;;;16.60;99.90;;;;;;5077845;28;20024;-68
2023/07/02 05:10:47;;;;;;;9.05;3.45;;;16.60;99.90;;;;;;5077899;28;20021;-72
2023/07/02 05:13:12;;;;;;;12.00;3.08;;;16.60;99.90;;;;;;5077802;28;20031;-72
2023/07/02 05:15:38;;;;;;;8.88;3.45;;;16.60;99.90;;;;;;5078858;28;20082;-74
2023/07/02 05:18:04;;;;;;;10.80;2.88;;;16.60;99.90;;;;;;5077818;28;20077;-68
2023/07/02 05:20:29;;;;;;;8.23;3.38;;;16.70;99.90;;;;;;5077611;28;20024;-74
2023/07/02 05:22:55;;;;;;;5.63;2.95;;;16.70;99.90;;;;;;5077620;28;20082;-74
2023/07/02 05:25:20;;;;;;;9.15;2.92;;;16.70;99.90;;;;;;5078024;28;20020;-68
2023/07/02 05:27:46;;;;;;;6.93;2.85;;;16.70;99.90;;;;;;5077418;28;20062;-72
2023/07/02 05:30:12;;;;;;;14.25;3.72;;;16.80;99.90;;;;;;5078420;28;20024;-72
2023/07/02 05:32:39;;;;;;;6.82;3.22;;;16.80;99.90;;;;;;5076785;28;20035;-68
2023/07/02 05:35:05;;;;;;;9.82;2.92;;;16.70;99.90;;;;;;5077813;28;20017;-72
2023/07/02 05:37:30;;;;;;;8.73;4.00;;;16.70;99.90;;;;;;5077610;28;20025;-72
2023/07/02 05:39:56;;;;;;;9.18;3.28;;;16.50;99.90;;;;;;5077660;28;20071;-71
2023/07/02 05:42:21;;;;;;;15.43;4.03;;;16.40;99.90;;;;;;5077439;28;20039;-72
2023/07/02 05:44:47;;;;;;;10.85;4.07;;;16.30;99.90;;;;;;5077532;28;20027;-72
2023/07/02 05:47:12;;;;;;;7.55;4.35;;;16.40;99.90;;;;;;5077107;28;20050;-72
2023/07/02 05:49:38;;;;;;;12.30;3.88;;;16.40;99.90;;;;;;5077425;28;20032;-72
2023/07/02 05:52:03;;;;;;;9.48;3.80;;;16.50;99.90;;;;;;5077237;28;20056;-72
2023/07/02 05:54:29;;;;;;;10.85;4.10;;;16.60;99.90;;;;;;5077013;28;20017;-72
2023/07/02 05:56:54;;;;;;;8.77;3.83;;;16.60;99.90;;;;;;5076994;28;20029;-72
2023/07/02 05:59:20;;;;;;;8.63;4.35;;;16.60;99.90;;;;;;5077229;28;20039;-72
2023/07/02 06:01:46;;;;;;;12.32;4.90;;;16.70;99.90;;;;;;5078097;28;20024;-69
2023/07/02 06:04:11;;;;;;;10.75;4.20;;;16.70;99.90;;;;;;5077696;28;20082;-69
2023/07/02 06:06:37;;;;;;;11.10;4.15;;;16.70;99.90;;;;;;5076704;28;20070;-74
2023/07/02 06:09:03;;;;;;;9.40;4.05;;;16.60;99.90;;;;;;5076790;28;20089;-72
2023/07/02 06:11:29;;;;;;;14.07;4.60;;;16.50;99.90;;;;;;5077711;28;20031;-69
2023/07/02 06:13:55;;;;;;;13.63;5.00;;;16.60;99.90;;;;;;5076723;28;20016;-69
2023/07/02 06:16:20;;;;;;;12.75;4.78;;;16.70;99.90;;;;;;5078019;28;20017;-69
2023/07/02 06:18:46;;;;;;;15.57;4.85;;;16.70;99.90;;;;;;5076552;28;20023;-74
2023/07/02 06:21:12;;;;;;;11.82;4.80;;;16.70;99.90;;;;;;5077054;28;20044;-74
2023/07/02 06:23:44;;;;;;;10.68;5.35;;;16.70;99.90;;;;;;5077105;28;20116;-68
2023/07/02 06:26:11;;;;;;;19.70;5.80;;;16.80;99.90;;;;;;5076676;28;20024;-74
2023/07/02 06:28:36;;;;;;;10.90;5.32;;;16.90;99.90;;;;;;5077125;28;20119;-72
2023/07/02 06:31:02;;;;;;;14.55;6.07;;;16.90;99.90;;;;;;5076253;28;20063;-72
2023/07/02 06:33:28;;;;;;;18.42;6.60;;;17.10;99.90;;;;;;5076568;28;20021;-74
2023/07/02 06:35:53;;;;;;;12.00;5.50;;;17.10;99.90;;;;;;5076280;28;20074;-73
2023/07/02 06:38:19;;;;;;;15.95;5.68;;;17.10;99.90;;;;;;5076868;28;20115;-72
2023/07/02 06:40:44;;;;;;;16.15;5.85;;;17.20;99.90;;;;;;5076063;28;20090;-72
2023/07/02 06:43:10;;;;;;;22.95;5.97;;;17.20;99.90;;;;;;5076154;28;20119;-72
2023/07/02 06:45:35;;;;;;;14.63;5.78;;;17.20;99.90;;;;;;5076567;28;20024;-72
2023/07/02 06:48:01;;;;;;;14.25;6.25;;;17.30;99.90;;;;;;5076294;28;20114;-72
2023/07/02 06:50:26;;;;;;;17.17;7.22;;;17.30;99.90;;;;;;5076461;28;20084;-72
2023/07/02 06:52:52;;;;;;;15.52;6.93;;;17.30;99.90;;;;;;5076861;28;20035;-72
2023/07/02 06:55:17;;;;;;;17.17;7.72;;;17.40;99.90;;;;;;5076007;28;20032;-72
2023/07/02 06:57:45;;;;;;;16.50;7.88;;;17.30;99.90;;;;;;5076126;28;20024;-72
2023/07/02 07:00:11;;;;;;;19.23;7.22;;;17.30;99.90;;;;;;5076836;28;20028;-72
2023/07/02 07:02:37;;;;;;;18.63;6.85;;;17.20;99.90;;;;;;5075831;28;20025;-72
2023/07/02 07:05:03;;;;;;;17.33;7.55;;;17.20;99.90;;;;;;5076629;28;20075;-72
2023/07/02 07:07:28;;;;;;;19.38;7.60;;;17.30;99.90;;;;;;5076693;28;20036;-72
2023/07/02 07:09:54;;;;;;;21.30;8.43;;;17.30;99.90;;;;;;5076946;28;20020;-72
2023/07/02 07:12:19;;;;;;;19.15;6.80;;;17.30;99.90;;;;;;5076822;28;20016;-72
2023/07/02 07:14:45;;;;;;;18.30;7.78;;;17.40;99.90;;;;;;5076032;28;20043;-72
2023/07/02 07:17:11;;;;;;;18.90;7.53;;;17.50;99.90;;;;;;5076846;28;20047;-72
2023/07/02 07:19:37;;;;;;;21.30;7.57;;;17.50;99.90;;;;;;5076170;28;20025;-72
2023/07/02 07:22:02;;;;;;;20.38;7.65;;;17.60;99.90;;;;;;5076681;28;20024;-72
2023/07/02 07:24:28;;;;;;;18.98;7.85;;;17.70;99.90;;;;;;5076286;28;20104;-72
2023/07/02 07:26:54;;;;;;;20.25;7.63;;;17.70;99.90;;;;;;5076688;28;20087;-72
2023/07/02 07:29:19;;;;;;;17.83;7.53;;;17.80;99.90;;;;;;5075756;28;20024;-72
2023/07/02 07:31:45;;;;;;;17.20;7.35;;;17.80;99.90;;;;;;5075651;28;20027;-72
2023/07/02 07:34:11;;;;;;;19.83;7.45;;;17.90;99.90;;;;;;5076176;28;20058;-72
2023/07/02 07:36:37;;;;;;;15.18;7.32;;;17.90;99.90;;;;;;5076585;28;20028;-72
2023/07/02 07:39:03;;;;;;;22.50;7.78;;;18.00;99.90;;;;;;5075875;28;20031;-72
2023/07/02 07:41:28;;;;;;;20.73;8.02;;;18.10;99.90;;;;;;5075783;28;20105;-72
2023/07/02 07:43:54;;;;;;;24.20;8.13;;;18.10;99.90;;;;;;5075948;28;20032;-72
2023/07/02 07:46:19;;;;;;;20.00;8.60;;;18.10;99.90;;;;;;5075630;28;20016;-72
2023/07/02 07:48:45;;;;;;;22.13;8.70;;;18.10;99.90;;;;;;5075420;28;20027;-72
2023/07/02 07:51:11;;;;;;;18.02;8.27;;;18.10;99.90;;;;;;5075426;28;20024;-71
2023/07/02 07:53:39;;;;;;;22.88;8.75;;;18.10;99.90;;;;;;5076447;28;20017;-71
2023/07/02 07:56:05;;;;;;;16.70;7.30;;;18.10;99.90;;;;;;5079576;28;20024;-71
2023/07/02 07:58:32;;;;;;;25.80;8.35;;;18.10;99.90;;;;;;5079242;28;20027;-71
2023/07/02 08:00:57;;;;;;;23.55;8.50;;;18.20;99.90;;;;;;5080032;28;20052;-71
2023/07/02 08:03:23;;;;;;;22.02;9.10;;;18.20;99.90;;;;;;5080125;28;20043;-71
2023/07/02 08:05:49;;;;;;;17.50;8.00;;;18.30;99.90;;;;;;5079156;28;20123;-71
2023/07/02 08:08:14;;;;;;;19.55;8.27;;;18.30;99.90;;;;;;5079004;28;20027;-72
2023/07/02 08:10:40;;;;;;;23.42;8.88;;;18.40;99.90;;;;;;5079480;28;20023;-71
2023/07/02 08:13:05;;;;;;;24.17;8.68;;;18.40;99.90;;;;;;5079310;28;20028;-72
2023/07/02 08:15:31;;;;;;;18.85;8.93;;;18.40;99.90;;;;;;5078954;28;20066;-71
2023/07/02 08:17:58;;;;;;;18.55;8.57;;;18.50;99.90;;;;;;5079134;28;20032;-72
2023/07/02 08:20:24;;;;;;;22.40;9.70;;;18.70;99.90;;;;;;5079739;28;20054;-72
2023/07/02 08:22:52;;;;;;;18.70;8.93;;;18.80;99.90;;;;;;5078897;28;20025;-72
2023/07/02 08:25:21;;;;;;;23.10;9.23;;;18.80;99.90;;;;;;5079066;28;20159;-72
2023/07/02 08:27:46;;;;;;;20.48;8.30;;;18.80;99.90;;;;;;5078629;28;20055;-71
2023/07/02 08:30:12;;;;;;;21.02;9.18;;;18.70;99.90;;;;;;5078728;28;20021;-71
2023/07/02 08:32:37;;;;;;;23.65;8.48;;;18.70;99.90;;;;;;5079600;28;20250;-71
2023/07/02 08:35:03;;;;;;;24.65;9.48;;;18.80;99.90;;;;;;5078950;28;20016;-71
2023/07/02 08:37:29;;;;;;;22.20;9.23;;;18.90;99.90;;;;;;5078721;28;20028;-71
2023/07/02 08:39:54;;;;;;;23.77;9.30;;;19.00;99.90;;;;;;5078865;28;20016;-71
2023/07/02 08:42:20;;;;;;;22.30;8.93;;;19.00;99.90;;;;;;5078367;28;20037;-71
2023/07/02 08:44:47;;;;;;;24.50;8.88;;;19.00;99.90;;;;;;5078724;28;20055;-72
2023/07/02 08:47:13;;;;;;;20.75;9.63;;;19.00;99.90;;;;;;5078866;28;20052;-72
2023/07/02 08:49:41;;;;;;;26.35;9.30;;;19.10;99.90;;;;;;5080036;28;20024;-72
2023/07/02 08:52:07;;;;;;;26.52;9.88;;;19.10;99.90;;;;;;5079135;28;20021;-72
2023/07/02 08:54:32;;;;;;;20.73;9.68;;;19.20;99.90;;;;;;5079088;28;20016;-72
2023/07/02 08:56:58;;;;;;;21.92;9.38;;;19.30;99.90;;;;;;5078678;28;20029;-73
2023/07/02 08:59:24;;;;;;;27.23;9.65;;;19.50;99.90;;;;;;5079151;28;20025;-72
2023/07/02 09:01:52;;;;;;;20.20;9.20;;;19.50;99.90;;;;;;5078764;28;20025;-72
2023/07/02 09:04:25;;;;;;;24.38;9.85;;;19.60;99.90;;;;;;5079002;28;20020;-71
2023/07/02 09:07:10;;;;;;;23.05;10.23;;;19.60;99.90;;;;;;5076922;28;20020;-72
2023/07/02 09:09:47;;;;;;;22.05;10.32;;;19.70;99.90;;;;;;5078449;28;20024;-73
2023/07/02 09:12:30;;;;;;;24.20;10.38;;;19.70;99.90;;;;;;5078006;28;20105;-72
2023/07/02 09:15:05;;;;;;;18.88;9.32;;;19.80;99.90;;;;;;5078793;28;20024;-72
2023/07/02 09:17:37;;;;;;;23.00;9.07;;;19.90;99.90;;;;;;5078232;28;20029;-72
2023/07/02 09:20:08;;;;;;;21.60;9.10;;;20.00;99.90;;;;;;5078140;28;20028;-72
2023/07/02 09:22:34;;;;;;;22.80;10.27;;;20.10;99.90;;;;;;5077867;28;20024;-71
2023/07/02 09:25:01;;;;;;;20.00;8.70;;;20.10;99.90;;;;;;5078021;28;20059;-73
2023/07/02 09:27:41;;;;;;;20.75;9.43;;;20.20;99.90;;;;;;5078440;28;20035;-71
2023/07/02 09:30:15;;;;;;;21.08;8.88;;;20.20;99.90;;;;;;5078614;28;20108;-73
2023/07/02 09:32:42;;;;;;;21.33;9.93;;;20.40;99.90;;;;;;5077712;28;20055;-73
2023/07/02 09:35:08;;;;;;;18.13;8.27;;;20.50;99.90;;;;;;5077433;28;20020;-73
2023/07/02 09:37:34;;;;;;;19.70;8.40;;;20.50;99.90;;;;;;5078298;28;20081;-72
2023/07/02 09:40:01;;;;;;;25.00;9.60;;;20.60;99.90;;;;;;5077583;28;20024;-72
2023/07/02 09:42:28;;;;;;;22.05;8.75;;;20.80;99.90;;;;;;5077462;28;20029;-72
2023/07/02 09:44:55;;;;;;;18.25;7.95;;;21.00;99.90;;;;;;5077336;28;20021;-71
2023/07/02 09:47:23;;;;;;;19.30;8.25;;;21.10;99.90;;;;;;5077316;28;20119;-71
2023/07/02 09:49:59;;;;;;;18.25;8.00;;;20.90;99.90;;;;;;5077154;28;20086;-71
2023/07/02 09:52:26;;;;;;;25.25;9.05;;;20.80;99.90;;;;;;5077158;28;20021;-71
2023/07/02 09:54:51;;;;;;;19.75;8.38;;;20.70;99.90;;;;;;5077362;28;20021;-71
2023/07/02 09:57:17;;;;;;;18.42;7.43;;;20.70;99.90;;;;;;5076862;28;20024;-71
2023/07/02 09:59:43;;;;;;;18.92;8.90;;;20.70;99.90;;;;;;5076897;28;20028;-71
2023/07/02 10:02:10;;;;;;;21.67;9.07;;;20.90;99.90;;;;;;5077086;28;20039;-71
2023/07/02 10:04:46;;;;;;;23.95;8.68;;;20.90;99.90;;;;;;5077528;28;20024;-71
2023/07/02 10:07:25;;;;;;;19.35;8.82;;;21.00;99.90;;;;;;5076880;28;20035;-71
2023/07/02 10:09:50;;;;;;;20.77;8.95;;;21.10;99.90;;;;;;5077488;28;20040;-71
2023/07/02 10:12:23;;;;;;;18.20;9.00;;;21.10;99.90;;;;;;5076664;28;20029;-71
2023/07/02 10:14:52;;;;;;;21.70;8.95;;;21.10;99.90;;;;;;5077385;28;20021;-71
2023/07/02 10:17:53;;;;;;;21.13;8.73;;;21.30;99.90;;;;;;5076649;28;20031;-71
2023/07/02 10:20:30;;;;;;;18.08;8.07;;;21.30;99.90;;;;;;5076708;28;20029;-71
2023/07/02 10:22:56;;;;;;;20.60;9.15;;;21.30;99.90;;;;;;5077215;28;20021;-71
2023/07/02 10:25:26;;;;;;;21.10;8.70;;;21.40;99.90;;;;;;5076761;28;20029;-71
2023/07/02 10:27:51;;;;;;;20.13;8.75;;;21.50;99.90;;;;;;5076348;28;20024;-71
2023/07/02 10:30:17;;;;;;;18.27;9.23;;;21.60;99.90;;;;;;5076315;28;20115;-71
2023/07/02 10:32:43;;;;;;;16.95;8.77;;;21.80;99.90;;;;;;5076246;28;20055;-71
2023/07/02 10:35:18;;;;;;;20.13;8.88;;;21.80;99.90;;;;;;5076456;28;20024;-71
2023/07/02 10:37:44;;;;;;;23.13;8.70;;;21.90;99.90;;;;;;5076168;28;20122;-71
2023/07/02 10:40:11;;;;;;;19.30;7.88;;;21.90;99.90;;;;;;5076704;28;20029;-71
2023/07/02 10:42:47;;;;;;;18.80;7.95;;;21.80;99.90;;;;;;5098305;22;20119;-70
2023/07/02 10:45:13;;;;;;;21.92;9.10;;;21.80;99.90;;;;;;5077262;28;20051;-70
2023/07/02 10:47:42;;;;;;;19.38;8.30;;;21.70;99.90;;;;;;5076104;28;20036;-70
2023/07/02 10:50:19;;;;;;;20.40;8.32;;;21.70;99.90;;;;;;5076986;28;20020;-70
2023/07/02 10:52:46;;;;;;;17.13;8.40;;;21.50;99.90;;;;;;5076829;28;20024;-71
2023/07/02 10:55:17;;;;;;;16.75;8.75;;;21.40;99.90;;;;;;5077217;28;20024;-71
2023/07/02 10:57:43;;;;;;;20.48;8.75;;;21.50;99.90;;;;;;5075982;28;20120;-70
2023/07/02 11:00:09;;;;;;;17.77;8.85;;;21.50;99.90;;;;;;5076243;28;20103;-70
2023/07/02 11:02:38;;;;;;;17.65;8.80;;;21.40;99.90;;;;;;5076268;28;20052;-70
2023/07/02 11:05:11;;;;;;;22.48;10.02;;;21.40;99.90;;;;;;5076456;28;20078;-70
2023/07/02 11:07:41;;;;;;;23.50;9.85;;;21.30;99.90;;;;;;5076890;28;20021;-71
2023/07/02 11:10:08;;;;;;;22.95;9.48;;;21.30;99.90;;;;;;5076646;28;20017;-70
2023/07/02 11:12:34;;;;;;;18.35;8.25;;;21.20;99.90;;;;;;5075801;28;20024;-70
2023/07/02 11:15:19;;;;;;;16.90;8.27;;;21.20;99.90;;;;;;5077055;28;20020;-70
2023/07/02 11:17:45;;;;;;;21.27;8.95;;;21.20;99.90;;;;;;5076186;28;20060;-70
2023/07/02 11:20:12;;;;;;;18.77;9.00;;;21.30;99.90;;;;;;5075954;28;20029;-70
2023/07/02 11:22:38;;;;;;;19.40;8.35;;;21.60;99.90;;;;;;5075730;28;20029;-71
2023/07/02 11:25:18;;;;;;;17.92;8.38;;;22.30;99.90;;;;;;5076921;28;20024;-71
2023/07/02 11:27:44;;;;;;;20.67;8.25;;;22.40;99.90;;;;;;5076323;28;20028;-71
2023/07/02 11:30:10;;;;;;;22.48;8.63;;;22.50;99.90;;;;;;5078393;28;20107;-71
2023/07/02 11:32:53;;;;;;;15.70;8.57;;;22.50;99.90;;;;;;5079732;28;20020;-70
2023/07/02 11:35:20;;;;;;;19.60;8.65;;;22.50;99.90;;;;;;5080342;28;20021;-71
2023/07/02 11:37:46;;;;;;;21.80;9.13;;;22.60;99.90;;;;;;5079781;28;20032;-71
2023/07/02 11:40:13;;;;;;;16.95;8.73;;;22.90;99.90;;;;;;5080427;28;20028;-71
2023/07/02 11:42:39;;;;;;;15.25;7.90;;;23.20;99.90;;;;;;5079513;28;20036;-70
2023/07/02 11:45:05;;;;;;;18.48;9.20;;;23.40;99.90;;;;;;5080686;28;20032;-70
2023/07/02 11:47:30;;;;;;;17.65;8.75;;;23.40;99.90;;;;;;5079450;28;20035;-70
2023/07/02 11:49:56;;;;;;;20.23;8.80;;;23.30;99.90;;;;;;5079722;28;20017;-70
2023/07/02 11:52:21;;;;;;;17.52;8.73;;;23.10;99.90;;;;;;5079322;28;20038;-70
2023/07/02 11:54:48;;;;;;;23.27;8.80;;;22.90;99.90;;;;;;5079596;28;20021;-70
2023/07/02 11:57:14;;;;;;;21.95;9.38;;;22.70;99.90;;;;;;5080072;28;20036;-70
2023/07/02 11:59:40;;;;;;;17.10;8.23;;;22.40;99.90;;;;;;5080144;28;20028;-70
2023/07/02 12:02:05;;;;;;;17.85;9.02;;;22.40;99.90;;;;;;5080371;28;20129;-70
2023/07/02 12:04:31;;;;;;;19.88;8.75;;;22.10;99.90;;;;;;5079936;28;20055;-70
2023/07/02 12:06:56;;;;;;;20.90;9.05;;;22.10;99.90;;;;;;5079084;28;20024;-70
2023/07/02 12:09:22;;;;;;;18.80;8.85;;;22.10;99.90;;;;;;5079247;28;20031;-71
2023/07/02 12:11:48;;;;;;;19.83;9.40;;;22.00;99.90;;;;;;5079038;28;20025;-67
2023/07/02 12:14:13;;;;;;;16.17;8.88;;;21.80;99.90;;;;;;5079290;28;20063;-67
2023/07/02 12:16:39;;;;;;;22.40;9.27;;;22.20;99.90;;;;;;5079033;28;20016;-67
2023/07/02 12:19:04;;;;;;;18.83;10.10;;;22.20;99.90;;;;;;5078758;28;20021;-67
2023/07/02 12:21:30;;;;;;;16.60;8.50;;;22.30;99.90;;;;;;5078633;28;20012;-67
2023/07/02 12:23:55;;;;;;;20.27;10.95;;;22.30;99.90;;;;;;5079566;28;20031;-67
2023/07/02 12:26:21;;;;;;;19.65;9.65;;;22.40;99.90;;;;;;5078716;28;20025;-67
2023/07/02 12:28:46;;;;;;;22.58;9.20;;;22.60;99.90;;;;;;5078723;28;20025;-67
2023/07/02 12:31:12;;;;;;;20.17;8.13;;;22.70;99.90;;;;;;5079013;28;20021;-67
2023/07/02 12:33:39;;;;;;;17.15;8.20;;;22.80;99.90;;;;;;5078573;28;20047;-68
2023/07/02 12:36:04;;;;;;;17.73;8.10;;;22.90;99.90;;;;;;5078858;28;20016;-70
2023/07/02 12:38:30;;;;;;;18.55;8.23;;;22.90;99.90;;;;;;5078548;28;20094;-69